sensor_id;sensor_type;location;lat;lon;timestamp;P1;durP1;ratioP1;P2;durP2;ratioP2
20619;SDS011;10469;42.720;23.252;2022-08-19T00:00:06;17.23;;;10.43;;
20619;SDS011;10469;42.720;23.252;2022-08-19T00:02:35;18.17;;;11.60;;
20619;SDS011;10469;42.720;23.252;2022-08-19T00:05:01;36.20;;;18.48;;
20619;SDS011;10469;42.720;23.252;2022-08-19T00:07:32;28.23;;;18.73;;
20619;SDS011;10469;42.720;23.252;2022-08-19T00:09:58;15.27;;;10.52;;
20619;SDS011;10469;42.720;23.252;2022-08-19T00:12:23;11.88;;;6.05;;
20619;SDS011;10469;42.720;23.252;2022-08-19T00:14:49;14.32;;;6.82;;
20619;SDS011;10469;42.720;23.252;2022-08-19T00:17:14;14.52;;;8.13;;
20619;SDS011;10469;42.720;23.252;2022-08-19T00:19:40;11.70;;;7.47;;
20619;SDS011;10469;42.720;23.252;2022-08-19T00:22:06;14.95;;;7.82;;
20619;SDS011;10469;42.720;23.252;2022-08-19T00:24:33;11.75;;;8.88;;
20619;SDS011;10469;42.720;23.252;2022-08-19T00:27:00;19.83;;;9.70;;
20619;SDS011;10469;42.720;23.252;2022-08-19T00:29:27;16.20;;;8.63;;
20619;SDS011;10469;42.720;23.252;2022-08-19T00:31:52;14.80;;;8.23;;
20619;SDS011;10469;42.720;23.252;2022-08-19T00:34:21;14.80;;;8.52;;
20619;SDS011;10469;42.720;23.252;2022-08-19T00:36:47;14.85;;;8.50;;
20619;SDS011;10469;42.720;23.252;2022-08-19T00:39:14;15.13;;;8.02;;
20619;SDS011;10469;42.720;23.252;2022-08-19T00:41:42;14.88;;;8.00;;
20619;SDS011;10469;42.720;23.252;2022-08-19T00:44:11;11.63;;;7.85;;
20619;SDS011;10469;42.720;23.252;2022-08-19T00:46:41;14.07;;;8.57;;
20619;SDS011;10469;42.720;23.252;2022-08-19T00:49:19;9.13;;;6.10;;
20619;SDS011;10469;42.720;23.252;2022-08-19T00:51:52;8.75;;;5.60;;
20619;SDS011;10469;42.720;23.252;2022-08-19T00:54:28;9.65;;;6.88;;
20619;SDS011;10469;42.720;23.252;2022-08-19T00:56:56;15.65;;;7.03;;
20619;SDS011;10469;42.720;23.252;2022-08-19T00:59:23;9.85;;;7.32;;
20619;SDS011;10469;42.720;23.252;2022-08-19T01:01:49;9.40;;;7.20;;
20619;SDS011;10469;42.720;23.252;2022-08-19T01:04:15;16.00;;;7.38;;
20619;SDS011;10469;42.720;23.252;2022-08-19T01:06:40;13.20;;;6.60;;
20619;SDS011;10469;42.720;23.252;2022-08-19T01:09:06;12.85;;;7.38;;
20619;SDS011;10469;42.720;23.252;2022-08-19T01:11:33;16.50;;;7.15;;
20619;SDS011;10469;42.720;23.252;2022-08-19T01:14:01;9.98;;;7.75;;
20619;SDS011;10469;42.720;23.252;2022-08-19T01:16:28;9.02;;;6.72;;
20619;SDS011;10469;42.720;23.252;2022-08-19T01:18:56;14.40;;;6.70;;
20619;SDS011;10469;42.720;23.252;2022-08-19T01:22:06;16.17;;;7.28;;
20619;SDS011;10469;42.720;23.252;2022-08-19T01:26:42;11.02;;;6.22;;
20619;SDS011;10469;42.720;23.252;2022-08-19T01:29:09;8.95;;;6.45;;
20619;SDS011;10469;42.720;23.252;2022-08-19T01:31:35;7.20;;;5.68;;
20619;SDS011;10469;42.720;23.252;2022-08-19T01:34:02;11.75;;;5.38;;
20619;SDS011;10469;42.720;23.252;2022-08-19T01:36:30;14.23;;;6.07;;
20619;SDS011;10469;42.720;23.252;2022-08-19T01:39:00;7.97;;;5.68;;
20619;SDS011;10469;42.720;23.252;2022-08-19T01:41:29;11.55;;;6.50;;
20619;SDS011;10469;42.720;23.252;2022-08-19T01:43:54;6.57;;;5.85;;
20619;SDS011;10469;42.720;23.252;2022-08-19T01:46:21;7.82;;;6.18;;
20619;SDS011;10469;42.720;23.252;2022-08-19T01:48:47;6.90;;;5.80;;
20619;SDS011;10469;42.720;23.252;2022-08-19T01:51:13;7.65;;;6.38;;
20619;SDS011;10469;42.720;23.252;2022-08-19T01:53:39;10.88;;;5.95;;
20619;SDS011;10469;42.720;23.252;2022-08-19T01:56:06;11.25;;;6.13;;
20619;SDS011;10469;42.720;23.252;2022-08-19T01:58:33;12.10;;;6.47;;
20619;SDS011;10469;42.720;23.252;2022-08-19T02:01:03;8.15;;;6.35;;
20619;SDS011;10469;42.720;23.252;2022-08-19T02:03:30;17.98;;;6.45;;
20619;SDS011;10469;42.720;23.252;2022-08-19T02:05:59;9.95;;;6.35;;
20619;SDS011;10469;42.720;23.252;2022-08-19T02:08:27;11.45;;;6.25;;
20619;SDS011;10469;42.720;23.252;2022-08-19T02:10:54;10.88;;;5.75;;
20619;SDS011;10469;42.720;23.252;2022-08-19T02:13:20;7.88;;;5.30;;
20619;SDS011;10469;42.720;23.252;2022-08-19T02:15:45;10.80;;;5.72;;
20619;SDS011;10469;42.720;23.252;2022-08-19T02:18:11;13.80;;;5.88;;
20619;SDS011;10469;42.720;23.252;2022-08-19T02:20:38;7.88;;;5.35;;
20619;SDS011;10469;42.720;23.252;2022-08-19T02:23:05;9.35;;;6.03;;
20619;SDS011;10469;42.720;23.252;2022-08-19T02:25:31;10.70;;;5.55;;
20619;SDS011;10469;42.720;23.252;2022-08-19T02:27:57;8.07;;;5.88;;
20619;SDS011;10469;42.720;23.252;2022-08-19T02:30:22;6.35;;;5.70;;
20619;SDS011;10469;42.720;23.252;2022-08-19T02:32:49;9.48;;;6.10;;
20619;SDS011;10469;42.720;23.252;2022-08-19T02:35:15;10.65;;;6.07;;
20619;SDS011;10469;42.720;23.252;2022-08-19T02:37:41;8.68;;;6.40;;
20619;SDS011;10469;42.720;23.252;2022-08-19T02:40:25;8.13;;;5.82;;
20619;SDS011;10469;42.720;23.252;2022-08-19T02:42:52;9.07;;;6.18;;
20619;SDS011;10469;42.720;23.252;2022-08-19T02:45:17;14.93;;;6.68;;
20619;SDS011;10469;42.720;23.252;2022-08-19T02:47:43;7.35;;;6.30;;
20619;SDS011;10469;42.720;23.252;2022-08-19T02:50:08;11.25;;;6.90;;
20619;SDS011;10469;42.720;23.252;2022-08-19T02:52:34;8.00;;;6.03;;
20619;SDS011;10469;42.720;23.252;2022-08-19T02:55:00;12.73;;;6.43;;
20619;SDS011;10469;42.720;23.252;2022-08-19T02:57:26;10.65;;;6.78;;
20619;SDS011;10469;42.720;23.252;2022-08-19T02:59:52;10.10;;;7.15;;
20619;SDS011;10469;42.720;23.252;2022-08-19T03:02:18;12.80;;;7.78;;
20619;SDS011;10469;42.720;23.252;2022-08-19T03:04:44;9.80;;;6.95;;
20619;SDS011;10469;42.720;23.252;2022-08-19T03:07:12;8.40;;;6.70;;
20619;SDS011;10469;42.720;23.252;2022-08-19T03:09:39;8.93;;;7.78;;
20619;SDS011;10469;42.720;23.252;2022-08-19T03:12:05;11.50;;;6.97;;
20619;SDS011;10469;42.720;23.252;2022-08-19T03:14:31;17.83;;;7.97;;
20619;SDS011;10469;42.720;23.252;2022-08-19T03:16:57;12.57;;;7.18;;
20619;SDS011;10469;42.720;23.252;2022-08-19T03:19:23;11.43;;;6.97;;
20619;SDS011;10469;42.720;23.252;2022-08-19T03:21:49;9.75;;;7.90;;
20619;SDS011;10469;42.720;23.252;2022-08-19T03:24:16;11.05;;;7.20;;
20619;SDS011;10469;42.720;23.252;2022-08-19T03:26:47;10.63;;;7.22;;
20619;SDS011;10469;42.720;23.252;2022-08-19T03:29:15;10.93;;;7.55;;
20619;SDS011;10469;42.720;23.252;2022-08-19T03:31:41;16.05;;;7.93;;
20619;SDS011;10469;42.720;23.252;2022-08-19T03:34:09;11.18;;;8.10;;
20619;SDS011;10469;42.720;23.252;2022-08-19T03:36:36;8.70;;;7.70;;
20619;SDS011;10469;42.720;23.252;2022-08-19T03:39:03;13.98;;;7.75;;
20619;SDS011;10469;42.720;23.252;2022-08-19T03:41:30;15.73;;;8.27;;
20619;SDS011;10469;42.720;23.252;2022-08-19T03:43:58;18.48;;;7.57;;
20619;SDS011;10469;42.720;23.252;2022-08-19T03:46:25;19.52;;;8.00;;
20619;SDS011;10469;42.720;23.252;2022-08-19T03:48:53;9.02;;;7.60;;
20619;SDS011;10469;42.720;23.252;2022-08-19T03:51:21;13.13;;;9.57;;
20619;SDS011;10469;42.720;23.252;2022-08-19T03:53:59;17.30;;;10.45;;
20619;SDS011;10469;42.720;23.252;2022-08-19T03:56:26;19.48;;;8.73;;
20619;SDS011;10469;42.720;23.252;2022-08-19T03:58:53;21.77;;;10.68;;
20619;SDS011;10469;42.720;23.252;2022-08-19T04:01:21;14.88;;;8.60;;
20619;SDS011;10469;42.720;23.252;2022-08-19T04:03:47;22.30;;;9.40;;
20619;SDS011;10469;42.720;23.252;2022-08-19T04:06:18;15.93;;;9.73;;
20619;SDS011;10469;42.720;23.252;2022-08-19T04:08:46;23.10;;;10.85;;
20619;SDS011;10469;42.720;23.252;2022-08-19T04:11:14;13.80;;;8.52;;
20619;SDS011;10469;42.720;23.252;2022-08-19T04:13:42;19.77;;;10.05;;
20619;SDS011;10469;42.720;23.252;2022-08-19T04:16:09;19.10;;;11.02;;
20619;SDS011;10469;42.720;23.252;2022-08-19T04:18:35;14.70;;;9.80;;
20619;SDS011;10469;42.720;23.252;2022-08-19T04:21:02;16.83;;;9.32;;
20619;SDS011;10469;42.720;23.252;2022-08-19T04:23:28;12.80;;;9.13;;
20619;SDS011;10469;42.720;23.252;2022-08-19T04:25:55;17.80;;;8.55;;
20619;SDS011;10469;42.720;23.252;2022-08-19T04:28:20;19.77;;;8.55;;
20619;SDS011;10469;42.720;23.252;2022-08-19T04:30:49;10.82;;;7.88;;
20619;SDS011;10469;42.720;23.252;2022-08-19T04:33:17;14.13;;;7.93;;
20619;SDS011;10469;42.720;23.252;2022-08-19T04:35:45;15.77;;;7.72;;
20619;SDS011;10469;42.720;23.252;2022-08-19T04:38:13;15.23;;;7.72;;
20619;SDS011;10469;42.720;23.252;2022-08-19T04:40:44;16.92;;;7.30;;
20619;SDS011;10469;42.720;23.252;2022-08-19T04:43:33;14.23;;;7.47;;
20619;SDS011;10469;42.720;23.252;2022-08-19T04:46:05;10.15;;;7.93;;
20619;SDS011;10469;42.720;23.252;2022-08-19T04:48:35;8.98;;;7.05;;
20619;SDS011;10469;42.720;23.252;2022-08-19T04:51:04;17.65;;;7.68;;
20619;SDS011;10469;42.720;23.252;2022-08-19T04:53:33;11.05;;;7.22;;
20619;SDS011;10469;42.720;23.252;2022-08-19T04:56:03;8.88;;;6.97;;
20619;SDS011;10469;42.720;23.252;2022-08-19T05:00:58;8.02;;;7.22;;
20619;SDS011;10469;42.720;23.252;2022-08-19T05:03:27;9.55;;;6.95;;
20619;SDS011;10469;42.720;23.252;2022-08-19T05:05:58;17.10;;;7.55;;
20619;SDS011;10469;42.720;23.252;2022-08-19T05:08:28;14.70;;;7.63;;
20619;SDS011;10469;42.720;23.252;2022-08-19T05:10:55;9.75;;;7.75;;
20619;SDS011;10469;42.720;23.252;2022-08-19T05:13:22;12.25;;;7.30;;
20619;SDS011;10469;42.720;23.252;2022-08-19T05:15:55;15.93;;;8.70;;
20619;SDS011;10469;42.720;23.252;2022-08-19T05:18:22;12.18;;;6.90;;
20619;SDS011;10469;42.720;23.252;2022-08-19T05:21:10;9.90;;;6.85;;
20619;SDS011;10469;42.720;23.252;2022-08-19T05:23:57;12.00;;;8.73;;
20619;SDS011;10469;42.720;23.252;2022-08-19T05:26:23;11.35;;;8.07;;
20619;SDS011;10469;42.720;23.252;2022-08-19T05:28:51;16.52;;;7.30;;
20619;SDS011;10469;42.720;23.252;2022-08-19T05:31:17;9.43;;;7.45;;
20619;SDS011;10469;42.720;23.252;2022-08-19T05:33:43;10.15;;;8.07;;
20619;SDS011;10469;42.720;23.252;2022-08-19T05:36:08;11.32;;;7.55;;
20619;SDS011;10469;42.720;23.252;2022-08-19T05:38:35;15.27;;;8.32;;
20619;SDS011;10469;42.720;23.252;2022-08-19T05:41:09;14.43;;;8.85;;
20619;SDS011;10469;42.720;23.252;2022-08-19T05:43:36;12.10;;;8.57;;
20619;SDS011;10469;42.720;23.252;2022-08-19T05:46:02;19.90;;;8.30;;
20619;SDS011;10469;42.720;23.252;2022-08-19T05:48:35;11.82;;;7.65;;
20619;SDS011;10469;42.720;23.252;2022-08-19T05:51:04;12.10;;;9.10;;
20619;SDS011;10469;42.720;23.252;2022-08-19T05:53:31;35.03;;;11.05;;
20619;SDS011;10469;42.720;23.252;2022-08-19T05:56:02;27.77;;;9.80;;
20619;SDS011;10469;42.720;23.252;2022-08-19T05:58:33;13.80;;;7.82;;
20619;SDS011;10469;42.720;23.252;2022-08-19T06:00:59;7.22;;;6.32;;
20619;SDS011;10469;42.720;23.252;2022-08-19T06:03:33;12.60;;;6.43;;
20619;SDS011;10469;42.720;23.252;2022-08-19T06:05:59;64.43;;;16.48;;
20619;SDS011;10469;42.720;23.252;2022-08-19T06:08:28;9.35;;;5.97;;
20619;SDS011;10469;42.720;23.252;2022-08-19T06:10:54;16.10;;;7.63;;
20619;SDS011;10469;42.720;23.252;2022-08-19T06:13:20;12.73;;;6.47;;
20619;SDS011;10469;42.720;23.252;2022-08-19T06:15:49;14.93;;;6.30;;
20619;SDS011;10469;42.720;23.252;2022-08-19T06:18:14;15.43;;;6.20;;
20619;SDS011;10469;42.720;23.252;2022-08-19T06:20:41;10.82;;;6.43;;
20619;SDS011;10469;42.720;23.252;2022-08-19T06:23:07;11.82;;;6.75;;
20619;SDS011;10469;42.720;23.252;2022-08-19T06:25:33;21.33;;;7.13;;
20619;SDS011;10469;42.720;23.252;2022-08-19T06:27:58;10.43;;;5.85;;
20619;SDS011;10469;42.720;23.252;2022-08-19T06:30:24;12.10;;;6.20;;
20619;SDS011;10469;42.720;23.252;2022-08-19T06:32:49;13.80;;;6.03;;
20619;SDS011;10469;42.720;23.252;2022-08-19T06:35:15;13.50;;;5.47;;
20619;SDS011;10469;42.720;23.252;2022-08-19T06:37:40;16.02;;;6.20;;
20619;SDS011;10469;42.720;23.252;2022-08-19T06:40:07;12.25;;;6.45;;
20619;SDS011;10469;42.720;23.252;2022-08-19T06:42:35;8.77;;;5.97;;
20619;SDS011;10469;42.720;23.252;2022-08-19T06:45:03;17.92;;;6.38;;
20619;SDS011;10469;42.720;23.252;2022-08-19T06:47:30;14.63;;;6.10;;
20619;SDS011;10469;42.720;23.252;2022-08-19T06:49:57;8.60;;;5.55;;
20619;SDS011;10469;42.720;23.252;2022-08-19T06:52:32;12.20;;;6.00;;
20619;SDS011;10469;42.720;23.252;2022-08-19T06:55:00;8.73;;;6.57;;
20619;SDS011;10469;42.720;23.252;2022-08-19T06:57:26;7.68;;;5.47;;
20619;SDS011;10469;42.720;23.252;2022-08-19T06:59:52;7.70;;;5.88;;
20619;SDS011;10469;42.720;23.252;2022-08-19T07:02:18;10.70;;;6.13;;
20619;SDS011;10469;42.720;23.252;2022-08-19T07:04:44;10.55;;;5.85;;
20619;SDS011;10469;42.720;23.252;2022-08-19T07:07:11;21.83;;;6.43;;
20619;SDS011;10469;42.720;23.252;2022-08-19T07:09:39;16.80;;;6.85;;
20619;SDS011;10469;42.720;23.252;2022-08-19T07:12:08;17.55;;;6.43;;
20619;SDS011;10469;42.720;23.252;2022-08-19T07:14:35;12.85;;;6.82;;
20619;SDS011;10469;42.720;23.252;2022-08-19T07:17:02;16.55;;;5.88;;
20619;SDS011;10469;42.720;23.252;2022-08-19T07:19:33;20.42;;;6.43;;
20619;SDS011;10469;42.720;23.252;2022-08-19T07:22:00;7.15;;;6.00;;
20619;SDS011;10469;42.720;23.252;2022-08-19T07:24:28;13.68;;;6.53;;
20619;SDS011;10469;42.720;23.252;2022-08-19T07:26:55;14.65;;;6.40;;
20619;SDS011;10469;42.720;23.252;2022-08-19T07:29:25;16.48;;;6.68;;
20619;SDS011;10469;42.720;23.252;2022-08-19T07:31:52;11.10;;;6.90;;
20619;SDS011;10469;42.720;23.252;2022-08-19T07:34:21;7.53;;;6.15;;
20619;SDS011;10469;42.720;23.252;2022-08-19T07:36:48;11.88;;;6.88;;
20619;SDS011;10469;42.720;23.252;2022-08-19T07:39:17;10.45;;;6.70;;
20619;SDS011;10469;42.720;23.252;2022-08-19T07:41:46;16.45;;;6.80;;
20619;SDS011;10469;42.720;23.252;2022-08-19T07:44:13;14.02;;;7.10;;
20619;SDS011;10469;42.720;23.252;2022-08-19T07:46:40;10.00;;;6.55;;
20619;SDS011;10469;42.720;23.252;2022-08-19T07:49:09;24.20;;;6.53;;
20619;SDS011;10469;42.720;23.252;2022-08-19T07:51:41;8.68;;;5.90;;
20619;SDS011;10469;42.720;23.252;2022-08-19T07:54:07;15.35;;;6.72;;
20619;SDS011;10469;42.720;23.252;2022-08-19T07:56:32;9.98;;;6.63;;
20619;SDS011;10469;42.720;23.252;2022-08-19T07:58:58;15.98;;;5.75;;
20619;SDS011;10469;42.720;23.252;2022-08-19T08:01:24;12.73;;;6.18;;
20619;SDS011;10469;42.720;23.252;2022-08-19T08:03:52;11.50;;;6.15;;
20619;SDS011;10469;42.720;23.252;2022-08-19T08:06:38;13.10;;;6.40;;
20619;SDS011;10469;42.720;23.252;2022-08-19T08:09:25;14.77;;;6.45;;
20619;SDS011;10469;42.720;23.252;2022-08-19T08:14:36;13.82;;;7.15;;
20619;SDS011;10469;42.720;23.252;2022-08-19T08:17:13;11.98;;;6.63;;
20619;SDS011;10469;42.720;23.252;2022-08-19T08:19:40;16.80;;;6.40;;
20619;SDS011;10469;42.720;23.252;2022-08-19T08:22:06;14.27;;;6.32;;
20619;SDS011;10469;42.720;23.252;2022-08-19T08:24:32;8.35;;;6.05;;
20619;SDS011;10469;42.720;23.252;2022-08-19T08:26:59;12.27;;;5.88;;
20619;SDS011;10469;42.720;23.252;2022-08-19T08:29:28;14.68;;;6.38;;
20619;SDS011;10469;42.720;23.252;2022-08-19T08:31:55;17.50;;;6.00;;
20619;SDS011;10469;42.720;23.252;2022-08-19T08:34:21;22.52;;;6.68;;
20619;SDS011;10469;42.720;23.252;2022-08-19T08:36:47;13.88;;;6.03;;
20619;SDS011;10469;42.720;23.252;2022-08-19T08:39:14;10.40;;;5.50;;
20619;SDS011;10469;42.720;23.252;2022-08-19T08:47:15;10.80;;;6.13;;
20619;SDS011;10469;42.720;23.252;2022-08-19T08:49:48;14.93;;;6.13;;
20619;SDS011;10469;42.720;23.252;2022-08-19T08:52:23;14.07;;;5.32;;
20619;SDS011;10469;42.720;23.252;2022-08-19T08:57:20;15.65;;;5.68;;
20619;SDS011;10469;42.720;23.252;2022-08-19T08:59:52;10.25;;;4.95;;
20619;SDS011;10469;42.720;23.252;2022-08-19T09:02:22;11.10;;;5.18;;
20619;SDS011;10469;42.720;23.252;2022-08-19T09:04:47;7.22;;;4.28;;
20619;SDS011;10469;42.720;23.252;2022-08-19T09:07:30;12.02;;;5.10;;
20619;SDS011;10469;42.720;23.252;2022-08-19T09:10:17;14.10;;;4.68;;
20619;SDS011;10469;42.720;23.252;2022-08-19T09:12:59;8.07;;;4.70;;
20619;SDS011;10469;42.720;23.252;2022-08-19T09:15:40;7.70;;;3.83;;
20619;SDS011;10469;42.720;23.252;2022-08-19T09:18:09;12.73;;;4.78;;
20619;SDS011;10469;42.720;23.252;2022-08-19T09:20:35;10.70;;;4.20;;
20619;SDS011;10469;42.720;23.252;2022-08-19T09:23:01;10.05;;;4.13;;
20619;SDS011;10469;42.720;23.252;2022-08-19T09:25:26;10.27;;;4.38;;
20619;SDS011;10469;42.720;23.252;2022-08-19T09:27:52;4.88;;;3.78;;
20619;SDS011;10469;42.720;23.252;2022-08-19T09:30:26;3.60;;;3.30;;
20619;SDS011;10469;42.720;23.252;2022-08-19T09:32:53;6.95;;;3.72;;
20619;SDS011;10469;42.720;23.252;2022-08-19T09:35:25;8.13;;;3.88;;
20619;SDS011;10469;42.720;23.252;2022-08-19T09:37:53;5.55;;;3.80;;
20619;SDS011;10469;42.720;23.252;2022-08-19T09:40:20;5.55;;;3.50;;
20619;SDS011;10469;42.720;23.252;2022-08-19T09:42:46;7.85;;;4.00;;
20619;SDS011;10469;42.720;23.252;2022-08-19T09:45:13;5.18;;;3.83;;
20619;SDS011;10469;42.720;23.252;2022-08-19T09:47:42;7.18;;;3.50;;
20619;SDS011;10469;42.720;23.252;2022-08-19T09:50:09;6.03;;;3.08;;
20619;SDS011;10469;42.720;23.252;2022-08-19T09:52:36;4.90;;;3.53;;
20619;SDS011;10469;42.720;23.252;2022-08-19T09:55:06;4.63;;;3.42;;
20619;SDS011;10469;42.720;23.252;2022-08-19T09:57:33;8.55;;;3.35;;
20619;SDS011;10469;42.720;23.252;2022-08-19T09:59:59;3.78;;;3.45;;
20619;SDS011;10469;42.720;23.252;2022-08-19T10:02:24;5.30;;;3.10;;
20619;SDS011;10469;42.720;23.252;2022-08-19T10:04:50;4.22;;;3.08;;
20619;SDS011;10469;42.720;23.252;2022-08-19T10:07:35;11.25;;;3.40;;
20619;SDS011;10469;42.720;23.252;2022-08-19T10:10:02;7.68;;;3.47;;
20619;SDS011;10469;42.720;23.252;2022-08-19T10:12:34;8.18;;;3.28;;
20619;SDS011;10469;42.720;23.252;2022-08-19T10:15:00;5.20;;;3.00;;
20619;SDS011;10469;42.720;23.252;2022-08-19T10:17:27;4.63;;;2.97;;
20619;SDS011;10469;42.720;23.252;2022-08-19T10:19:52;4.60;;;3.40;;
20619;SDS011;10469;42.720;23.252;2022-08-19T10:22:18;4.35;;;3.22;;
20619;SDS011;10469;42.720;23.252;2022-08-19T10:24:45;4.78;;;3.42;;
20619;SDS011;10469;42.720;23.252;2022-08-19T10:27:11;7.13;;;3.60;;
20619;SDS011;10469;42.720;23.252;2022-08-19T10:29:38;8.27;;;3.80;;
20619;SDS011;10469;42.720;23.252;2022-08-19T10:32:05;4.18;;;3.50;;
20619;SDS011;10469;42.720;23.252;2022-08-19T10:34:32;5.63;;;3.35;;
20619;SDS011;10469;42.720;23.252;2022-08-19T10:36:58;7.43;;;3.70;;
20619;SDS011;10469;42.720;23.252;2022-08-19T10:39:25;4.22;;;3.58;;
20619;SDS011;10469;42.720;23.252;2022-08-19T10:41:54;6.18;;;3.40;;
20619;SDS011;10469;42.720;23.252;2022-08-19T10:44:21;3.85;;;3.47;;
20619;SDS011;10469;42.720;23.252;2022-08-19T10:46:48;6.00;;;3.70;;
20619;SDS011;10469;42.720;23.252;2022-08-19T10:49:14;4.22;;;3.25;;
20619;SDS011;10469;42.720;23.252;2022-08-19T10:51:40;8.05;;;3.55;;
20619;SDS011;10469;42.720;23.252;2022-08-19T10:54:25;4.57;;;3.42;;
20619;SDS011;10469;42.720;23.252;2022-08-19T10:57:09;6.53;;;3.40;;
20619;SDS011;10469;42.720;23.252;2022-08-19T10:59:35;4.07;;;3.63;;
20619;SDS011;10469;42.720;23.252;2022-08-19T11:02:01;8.23;;;3.75;;
20619;SDS011;10469;42.720;23.252;2022-08-19T11:04:29;4.28;;;3.70;;
20619;SDS011;10469;42.720;23.252;2022-08-19T11:06:55;7.60;;;4.07;;
20619;SDS011;10469;42.720;23.252;2022-08-19T11:09:22;5.85;;;3.55;;
20619;SDS011;10469;42.720;23.252;2022-08-19T11:11:55;10.30;;;4.07;;
20619;SDS011;10469;42.720;23.252;2022-08-19T11:14:21;5.70;;;3.72;;
20619;SDS011;10469;42.720;23.252;2022-08-19T11:16:49;6.38;;;4.15;;
20619;SDS011;10469;42.720;23.252;2022-08-19T11:19:15;9.43;;;4.28;;
20619;SDS011;10469;42.720;23.252;2022-08-19T11:21:44;8.95;;;3.70;;
20619;SDS011;10469;42.720;23.252;2022-08-19T11:24:16;5.97;;;3.45;;
20619;SDS011;10469;42.720;23.252;2022-08-19T11:26:45;11.25;;;3.70;;
20619;SDS011;10469;42.720;23.252;2022-08-19T11:29:12;6.55;;;3.60;;
20619;SDS011;10469;42.720;23.252;2022-08-19T11:31:42;5.35;;;3.60;;
20619;SDS011;10469;42.720;23.252;2022-08-19T11:34:11;7.00;;;4.03;;
20619;SDS011;10469;42.720;23.252;2022-08-19T11:36:41;10.05;;;4.20;;
20619;SDS011;10469;42.720;23.252;2022-08-19T11:39:10;7.93;;;3.90;;
20619;SDS011;10469;42.720;23.252;2022-08-19T11:41:37;6.93;;;4.25;;
20619;SDS011;10469;42.720;23.252;2022-08-19T11:44:03;9.85;;;4.35;;
20619;SDS011;10469;42.720;23.252;2022-08-19T11:46:29;8.57;;;3.72;;
20619;SDS011;10469;42.720;23.252;2022-08-19T11:48:56;10.55;;;3.63;;
20619;SDS011;10469;42.720;23.252;2022-08-19T11:51:24;8.30;;;3.85;;
20619;SDS011;10469;42.720;23.252;2022-08-19T11:53:51;8.27;;;4.50;;
20619;SDS011;10469;42.720;23.252;2022-08-19T11:56:18;9.98;;;4.18;;
20619;SDS011;10469;42.720;23.252;2022-08-19T12:18:56;7.75;;;4.05;;
20619;SDS011;10469;42.720;23.252;2022-08-19T12:21:24;8.45;;;4.35;;
20619;SDS011;10469;42.720;23.252;2022-08-19T12:23:54;7.97;;;4.20;;
20619;SDS011;10469;42.720;23.252;2022-08-19T12:26:21;6.72;;;4.10;;
20619;SDS011;10469;42.720;23.252;2022-08-19T12:28:47;10.38;;;4.13;;
20619;SDS011;10469;42.720;23.252;2022-08-19T12:31:13;8.23;;;4.25;;
20619;SDS011;10469;42.720;23.252;2022-08-19T12:33:40;7.43;;;4.28;;
20619;SDS011;10469;42.720;23.252;2022-08-19T12:36:08;9.38;;;4.30;;
20619;SDS011;10469;42.720;23.252;2022-08-19T12:38:37;6.18;;;3.75;;
20619;SDS011;10469;42.720;23.252;2022-08-19T12:41:03;9.23;;;3.92;;
20619;SDS011;10469;42.720;23.252;2022-08-19T12:43:34;8.82;;;4.30;;
20619;SDS011;10469;42.720;23.252;2022-08-19T12:46:01;5.78;;;4.15;;
20619;SDS011;10469;42.720;23.252;2022-08-19T12:48:29;7.50;;;3.97;;
20619;SDS011;10469;42.720;23.252;2022-08-19T12:50:54;9.20;;;3.90;;
20619;SDS011;10469;42.720;23.252;2022-08-19T12:53:20;6.88;;;4.35;;
20619;SDS011;10469;42.720;23.252;2022-08-19T12:55:45;7.68;;;4.50;;
20619;SDS011;10469;42.720;23.252;2022-08-19T12:58:11;13.15;;;4.50;;
20619;SDS011;10469;42.720;23.252;2022-08-19T13:00:37;7.95;;;3.72;;
20619;SDS011;10469;42.720;23.252;2022-08-19T13:03:03;5.07;;;4.20;;
20619;SDS011;10469;42.720;23.252;2022-08-19T13:05:29;5.80;;;3.80;;
20619;SDS011;10469;42.720;23.252;2022-08-19T13:07:58;6.55;;;4.28;;
20619;SDS011;10469;42.720;23.252;2022-08-19T13:10:29;8.38;;;4.10;;
20619;SDS011;10469;42.720;23.252;2022-08-19T13:13:00;7.07;;;4.05;;
20619;SDS011;10469;42.720;23.252;2022-08-19T13:15:27;6.15;;;4.00;;
20619;SDS011;10469;42.720;23.252;2022-08-19T13:17:55;6.47;;;4.28;;
20619;SDS011;10469;42.720;23.252;2022-08-19T13:20:22;7.97;;;3.92;;
20619;SDS011;10469;42.720;23.252;2022-08-19T13:22:48;5.35;;;4.30;;
20619;SDS011;10469;42.720;23.252;2022-08-19T13:25:13;6.68;;;4.07;;
20619;SDS011;10469;42.720;23.252;2022-08-19T13:27:42;11.35;;;4.13;;
20619;SDS011;10469;42.720;23.252;2022-08-19T13:30:09;9.68;;;4.22;;
20619;SDS011;10469;42.720;23.252;2022-08-19T13:32:55;6.97;;;3.95;;
20619;SDS011;10469;42.720;23.252;2022-08-19T13:35:41;5.47;;;4.07;;
20619;SDS011;10469;42.720;23.252;2022-08-19T13:38:09;6.03;;;4.00;;
20619;SDS011;10469;42.720;23.252;2022-08-19T13:40:35;8.18;;;4.15;;
20619;SDS011;10469;42.720;23.252;2022-08-19T13:43:02;7.10;;;3.80;;
20619;SDS011;10469;42.720;23.252;2022-08-19T13:45:29;10.90;;;4.22;;
20619;SDS011;10469;42.720;23.252;2022-08-19T13:48:01;10.32;;;4.10;;
20619;SDS011;10469;42.720;23.252;2022-08-19T13:50:33;8.45;;;4.50;;
20619;SDS011;10469;42.720;23.252;2022-08-19T13:53:10;6.38;;;4.00;;
20619;SDS011;10469;42.720;23.252;2022-08-19T13:55:39;6.57;;;3.80;;
20619;SDS011;10469;42.720;23.252;2022-08-19T13:58:06;11.23;;;3.78;;
20619;SDS011;10469;42.720;23.252;2022-08-19T14:00:34;6.60;;;4.18;;
20619;SDS011;10469;42.720;23.252;2022-08-19T14:03:02;5.80;;;4.03;;
20619;SDS011;10469;42.720;23.252;2022-08-19T14:05:28;7.05;;;4.22;;
20619;SDS011;10469;42.720;23.252;2022-08-19T14:07:54;8.02;;;4.18;;
20619;SDS011;10469;42.720;23.252;2022-08-19T14:10:20;10.48;;;4.22;;
20619;SDS011;10469;42.720;23.252;2022-08-19T14:12:48;6.90;;;4.05;;
20619;SDS011;10469;42.720;23.252;2022-08-19T14:15:14;9.15;;;4.53;;
20619;SDS011;10469;42.720;23.252;2022-08-19T14:17:41;5.00;;;4.03;;
20619;SDS011;10469;42.720;23.252;2022-08-19T14:20:08;7.10;;;3.88;;
20619;SDS011;10469;42.720;23.252;2022-08-19T14:22:36;8.77;;;4.50;;
20619;SDS011;10469;42.720;23.252;2022-08-19T14:25:04;5.85;;;4.03;;
20619;SDS011;10469;42.720;23.252;2022-08-19T14:27:35;7.53;;;4.60;;
20619;SDS011;10469;42.720;23.252;2022-08-19T14:30:05;6.72;;;3.63;;
20619;SDS011;10469;42.720;23.252;2022-08-19T14:32:33;4.80;;;4.00;;
20619;SDS011;10469;42.720;23.252;2022-08-19T14:35:00;10.43;;;4.28;;
20619;SDS011;10469;42.720;23.252;2022-08-19T14:37:26;9.23;;;4.20;;
20619;SDS011;10469;42.720;23.252;2022-08-19T14:39:51;7.35;;;4.18;;
20619;SDS011;10469;42.720;23.252;2022-08-19T14:42:18;8.45;;;4.60;;
20619;SDS011;10469;42.720;23.252;2022-08-19T14:44:44;6.88;;;4.65;;
20619;SDS011;10469;42.720;23.252;2022-08-19T14:47:09;7.88;;;6.13;;
20619;SDS011;10469;42.720;23.252;2022-08-19T14:49:35;6.80;;;4.60;;
20619;SDS011;10469;42.720;23.252;2022-08-19T14:52:00;15.88;;;4.72;;
20619;SDS011;10469;42.720;23.252;2022-08-19T14:54:26;8.95;;;4.40;;
20619;SDS011;10469;42.720;23.252;2022-08-19T14:56:51;7.00;;;4.40;;
20619;SDS011;10469;42.720;23.252;2022-08-19T14:59:17;6.20;;;4.18;;
20619;SDS011;10469;42.720;23.252;2022-08-19T15:01:43;6.95;;;4.57;;
20619;SDS011;10469;42.720;23.252;2022-08-19T15:04:08;8.68;;;4.47;;
20619;SDS011;10469;42.720;23.252;2022-08-19T15:06:34;8.65;;;4.50;;
20619;SDS011;10469;42.720;23.252;2022-08-19T15:08:59;6.97;;;4.50;;